Time;durP1;ratioP1;P1;durP2;ratioP2;P2;SDS_P1;SDS_P2;PMS_P1;PMS_P2;Temp;Humidity;BMP_temperature;BMP_pressure;BME280_temperature;BME280_humidity;BME280_pressure;Samples;Min_cycle;Max_cycle;Signal;HPM_P1;HPM_P2
2022/09/13 00:00:20;;;;;;;6.60;6.10;;;;;;;;;;5077685;28;20448;-71
2022/09/13 00:03:35;;;;;;;6.43;5.93;;;;;;;;;;5077690;28;20518;-71
2022/09/13 00:06:54;;;;;;;6.73;6.23;;;;;;;;;;5076827;28;20874;-70
2022/09/13 00:10:00;;;;;;;6.07;5.63;;;;;;;;;;5076019;28;20526;-70
2022/09/13 00:13:07;;;;;;;6.10;5.70;;;;;;;;;;5080991;28;20469;-70
2022/09/13 00:16:15;;;;;;;6.47;5.97;;;;;;;;;;5076994;28;20457;-71
2022/09/13 00:25:56;;;;;;;;;;;;;;;;;;;;;
2022/09/13 00:28:53;;;;;;;7.00;6.40;;;;;;;;;;5063391;28;20461;-70
2022/09/13 00:32:03;;;;;;;6.63;6.13;;;;;;;;;;5071340;28;20949;-71
2022/09/13 00:41:56;;;;;;;6.33;5.80;;;17.40;99.90;;;;;;4993120;28;20542;-71
2022/09/13 00:45:20;;;;;;;6.77;6.27;;;17.30;99.90;;;;;;5074981;28;20464;-71
2022/09/13 00:48:50;;;;;;;6.70;6.20;;;17.20;99.90;;;;;;5073490;28;20585;-71
2022/09/13 00:51:52;;;;;;;6.20;5.80;;;17.20;99.90;;;;;;5074248;28;20536;-71
2022/09/13 00:58:35;;;;;;;7.50;6.90;;;17.10;99.90;;;;;;5076048;28;20442;-70
2022/09/13 01:01:47;;;;;;;;;;;;;;;;;;;;;
2022/09/13 01:04:53;;;;;;;7.10;6.40;;;17.10;99.90;;;;;;5074585;28;22493;-71
2022/09/13 01:15:03;;;;;;;7.00;6.40;;;17.10;99.90;;;;;;5072558;28;21276;-70
2022/09/13 01:22:00;;;;;;;7.80;6.73;;;16.90;99.90;;;;;;5075484;28;20564;-71
2022/09/13 01:26:00;;;;;;;6.80;6.30;;;16.90;99.90;;;;;;5072184;28;20453;-71
2022/09/13 01:29:36;;;;;;;7.37;6.73;;;16.90;99.90;;;;;;5057897;28;20465;-71
2022/09/13 01:32:56;;;;;;;7.97;7.37;;;16.80;99.90;;;;;;5073490;28;20603;-71
2022/09/13 01:36:24;;;;;;;6.93;6.40;;;16.90;99.90;;;;;;5076005;28;21052;-71
2022/09/13 01:40:03;;;;;;;7.97;7.27;;;16.90;99.90;;;;;;5013739;28;20467;-71
2022/09/13 01:43:24;;;;;;;7.00;6.40;;;16.90;99.90;;;;;;5027520;28;20485;-71
2022/09/13 01:46:24;;;;;;;6.97;6.27;;;16.90;99.90;;;;;;5076578;28;20452;-71
2022/09/13 01:49:37;;;;;;;7.10;6.50;;;16.90;99.90;;;;;;5073955;28;20541;-71
2022/09/13 01:53:03;;;;;;;7.50;6.80;;;16.90;99.90;;;;;;5075213;28;20466;-71
2022/09/13 01:56:16;;;;;;;7.37;6.70;;;16.90;99.90;;;;;;5076041;28;20448;-71
2022/09/13 02:03:09;;;;;;;7.50;6.80;;;16.90;99.90;;;;;;5074768;28;20473;-71
2022/09/13 02:06:46;;;;;;;7.70;6.77;;;16.90;99.90;;;;;;5073932;28;20454;-71
2022/09/13 02:13:18;;;;;;;8.10;7.30;;;16.90;99.90;;;;;;5074138;28;20508;-70
2022/09/13 02:16:38;;;;;;;7.10;6.40;;;16.90;99.90;;;;;;5075572;28;20827;-71
2022/09/13 02:20:06;;;;;;;8.47;7.40;;;16.90;99.90;;;;;;5072845;28;20450;-71
2022/09/13 02:23:16;;;;;;;8.03;6.97;;;16.90;99.90;;;;;;5074443;28;20964;-71
2022/09/13 02:29:50;;;;;;;7.40;6.80;;;16.90;99.90;;;;;;5073609;28;20468;-70
2022/09/13 02:33:13;;;;;;;6.77;6.17;;;16.90;99.90;;;;;;5073170;28;20645;-70
2022/09/13 02:36:15;;;;;;;8.03;7.33;;;16.90;99.90;;;;;;5068706;28;20462;-70
2022/09/13 02:39:16;;;;;;;8.87;7.40;;;16.90;99.90;;;;;;5069817;28;20992;-70
2022/09/13 02:42:30;;;;;;;7.47;6.77;;;16.90;99.90;;;;;;5073496;28;20464;-70
2022/09/13 02:49:10;;;;;;;8.30;7.50;;;16.80;99.90;;;;;;5072623;28;20458;-71
2022/09/13 02:52:22;;;;;;;7.23;6.53;;;16.80;99.90;;;;;;5076482;28;20470;-71
2022/09/13 02:55:48;;;;;;;8.17;7.37;;;16.80;99.90;;;;;;5078948;28;20491;-71
2022/09/13 02:59:01;;;;;;;7.90;7.30;;;16.80;99.90;;;;;;5067544;28;20565;-71
2022/09/13 03:02:26;;;;;;;7.77;7.07;;;16.80;99.90;;;;;;5074960;28;20478;-71
2022/09/13 03:05:26;;;;;;;7.97;7.17;;;16.80;99.90;;;;;;5080551;28;20523;-71
2022/09/13 03:08:42;;;;;;;8.17;7.37;;;16.90;99.90;;;;;;5077880;28;20449;-71
2022/09/13 03:12:07;;;;;;;7.90;7.20;;;16.80;99.90;;;;;;5073821;28;20488;-71
2022/09/13 03:15:22;;;;;;;8.90;8.10;;;16.80;99.90;;;;;;5077565;28;20845;-71
2022/09/13 03:18:47;;;;;;;8.33;7.63;;;16.80;99.90;;;;;;5077612;28;20488;-71
2022/09/13 03:22:06;;;;;;;9.10;8.33;;;16.80;99.90;;;;;;5077263;28;20469;-71
2022/09/13 03:25:24;;;;;;;9.47;8.47;;;16.80;99.90;;;;;;5075977;28;20451;-70
2022/09/13 03:28:34;;;;;;;8.93;8.13;;;16.80;99.90;;;;;;5075627;28;20528;-71
2022/09/13 03:31:45;;;;;;;8.70;7.90;;;16.80;99.90;;;;;;5073763;28;20460;-71
2022/09/13 03:35:02;;;;;;;9.87;8.97;;;16.80;99.90;;;;;;5077577;28;20477;-71
2022/09/13 03:38:11;;;;;;;9.00;8.20;;;16.80;99.90;;;;;;5077739;28;20448;-71
2022/09/13 03:41:25;;;;;;;9.17;8.27;;;16.70;99.90;;;;;;5077599;28;21051;-71
2022/09/13 03:44:34;;;;;;;9.63;8.70;;;16.70;99.90;;;;;;5073964;28;20473;-71
2022/09/13 03:51:02;;;;;;;11.70;9.83;;;16.70;99.90;;;;;;5075119;28;20457;-71
2022/09/13 03:54:07;;;;;;;10.47;9.57;;;16.70;99.90;;;;;;5076480;28;20980;-71
2022/09/13 03:57:13;;;;;;;11.60;10.50;;;16.80;99.90;;;;;;5076378;28;20834;-71
2022/09/13 04:00:32;;;;;;;9.80;8.90;;;16.80;99.90;;;;;;5077411;28;20495;-71
2022/09/13 04:03:50;;;;;;;12.13;11.03;;;16.80;99.90;;;;;;5075544;28;20475;-71
2022/09/13 04:07:04;;;;;;;10.63;9.70;;;16.70;99.90;;;;;;5075090;28;20457;-71
2022/09/13 04:10:16;;;;;;;10.50;9.53;;;16.70;99.90;;;;;;5075107;28;20460;-71
2022/09/13 04:13:22;;;;;;;10.50;9.50;;;16.70;99.90;;;;;;5074897;28;20470;-71
2022/09/13 04:16:24;;;;;;;11.67;10.47;;;16.70;99.90;;;;;;5061516;28;20473;-71
2022/09/13 04:19:39;;;;;;;12.17;10.97;;;16.70;99.90;;;;;;5076736;28;20502;-71
2022/09/13 04:22:38;;;;;;;10.97;10.00;;;16.70;99.90;;;;;;5075328;28;21351;-71
2022/09/13 04:25:44;;;;;;;13.83;11.33;;;16.70;99.90;;;;;;5073242;28;21255;-71
2022/09/13 04:29:10;;;;;;;13.47;11.37;;;16.70;99.90;;;;;;5075507;28;20534;-71
2022/09/13 04:32:06;;;;;;;14.70;13.30;;;16.70;99.90;;;;;;5063639;28;20472;-71
2022/09/13 04:38:30;;;;;;;16.40;14.80;;;16.70;99.90;;;;;;5071755;28;21054;-71
2022/09/13 04:41:53;;;;;;;16.40;14.87;;;16.70;99.90;;;;;;5060475;28;20553;-71
2022/09/13 04:44:57;;;;;;;17.83;15.77;;;16.70;99.90;;;;;;5072603;28;20469;-71
2022/09/13 04:51:28;;;;;;;17.87;15.97;;;16.60;99.90;;;;;;5063356;28;20467;-71
2022/09/13 04:54:33;;;;;;;17.10;15.40;;;16.60;99.90;;;;;;5075843;28;20492;-71
2022/09/13 04:57:44;;;;;;;17.23;15.53;;;16.60;99.90;;;;;;5068889;28;20451;-71
2022/09/13 05:00:55;;;;;;;17.47;14.97;;;16.60;99.90;;;;;;5073201;28;20969;-71
2022/09/13 05:04:08;;;;;;;18.23;16.30;;;16.60;99.90;;;;;;5067581;28;20972;-70
2022/09/13 05:07:08;;;;;;;18.03;16.13;;;16.60;99.90;;;;;;5067403;28;20489;-70
2022/09/13 05:10:21;;;;;;;19.20;17.20;;;16.60;99.90;;;;;;5075409;28;20457;-70
2022/09/13 05:13:14;;;;;;;17.73;15.93;;;16.60;99.90;;;;;;5071727;28;20605;-71
2022/09/13 05:16:19;;;;;;;18.43;16.53;;;16.60;99.90;;;;;;5058213;28;20480;-70
2022/09/13 05:19:20;;;;;;;17.67;15.97;;;16.60;99.90;;;;;;5064148;28;20482;-70
2022/09/13 05:22:20;;;;;;;17.50;15.77;;;16.60;99.90;;;;;;5060903;28;20488;-70
2022/09/13 05:25:54;;;;;;;18.67;16.87;;;16.60;99.90;;;;;;5055722;28;20446;-70
2022/09/13 05:29:03;;;;;;;19.90;17.70;;;16.60;99.90;;;;;;5069599;28;20868;-71
2022/09/13 05:32:03;;;;;;;20.70;18.60;;;16.50;99.90;;;;;;5071992;28;20482;-70
2022/09/13 05:35:06;;;;;;;18.67;16.77;;;16.50;99.90;;;;;;5067109;28;20465;-70
2022/09/13 05:38:40;;;;;;;19.40;17.40;;;16.50;99.90;;;;;;5061703;28;20513;-71
2022/09/13 05:41:37;;;;;;;20.17;18.17;;;16.50;99.90;;;;;;5065528;28;20483;-70
2022/09/13 05:44:41;;;;;;;19.33;17.43;;;16.50;99.90;;;;;;5064273;28;20501;-69
2022/09/13 05:47:41;;;;;;;20.43;18.33;;;16.60;99.90;;;;;;5070616;28;20449;-70
2022/09/13 05:50:55;;;;;;;19.40;17.40;;;16.60;99.90;;;;;;5067840;28;20457;-70
2022/09/13 05:54:00;;;;;;;20.47;18.47;;;16.60;99.90;;;;;;5067206;28;20485;-69
2022/09/13 05:57:07;;;;;;;19.83;17.93;;;16.60;99.90;;;;;;5065209;28;20477;-70
2022/09/13 06:00:04;;;;;;;19.00;17.10;;;16.70;99.90;;;;;;5067329;28;20453;-69
2022/09/13 06:02:58;;;;;;;18.83;16.90;;;16.70;99.90;;;;;;5062773;28;20488;-69
2022/09/13 06:06:00;;;;;;;20.83;17.70;;;16.70;99.90;;;;;;5045501;28;20458;-69
2022/09/13 06:08:57;;;;;;;19.60;17.53;;;16.70;99.90;;;;;;5069617;28;20494;-70
2022/09/13 06:11:52;;;;;;;18.53;16.73;;;16.80;99.90;;;;;;5065260;28;20491;-70
2022/09/13 06:14:54;;;;;;;19.40;17.50;;;16.80;99.90;;;;;;5073662;28;20577;-70
2022/09/13 06:17:42;;;;;;;21.57;19.20;;;16.80;99.90;;;;;;5071832;28;20453;-70
2022/09/13 06:20:30;;;;;;;20.37;18.17;;;16.80;99.90;;;;;;5072935;28;20453;-70
2022/09/13 06:23:24;;;;;;;18.83;16.93;;;16.80;99.90;;;;;;5070918;28;20484;-70
2022/09/13 06:26:14;;;;;;;19.70;17.67;;;16.80;99.90;;;;;;5071968;28;20480;-70
2022/09/13 06:29:05;;;;;;;19.33;17.43;;;16.80;99.90;;;;;;5074526;28;20456;-70
2022/09/13 06:31:55;;;;;;;19.53;17.57;;;16.80;99.90;;;;;;5071360;28;20486;-70
2022/09/13 06:34:48;;;;;;;18.43;16.53;;;16.90;99.90;;;;;;5073920;28;20472;-70
2022/09/13 06:37:40;;;;;;;17.43;15.57;;;16.90;99.90;;;;;;5072628;28;20453;-70
2022/09/13 06:40:33;;;;;;;17.50;15.67;;;16.90;99.90;;;;;;5066872;28;20461;-70
2022/09/13 06:43:22;;;;;;;18.03;15.63;;;16.90;99.90;;;;;;5070687;28;20489;-69
2022/09/13 06:46:13;;;;;;;18.00;15.00;;;17.00;99.90;;;;;;5068868;28;20456;-70
2022/09/13 06:49:03;;;;;;;15.60;14.10;;;17.10;99.90;;;;;;5071637;28;20506;-71
2022/09/13 06:51:54;;;;;;;18.60;14.70;;;17.10;99.90;;;;;;5067932;28;20473;-70
2022/09/13 06:54:43;;;;;;;16.67;13.33;;;17.20;99.90;;;;;;5072545;28;21011;-70
2022/09/13 06:57:33;;;;;;;15.97;13.20;;;17.30;99.90;;;;;;5072362;28;20469;-71
2022/09/13 07:00:21;;;;;;;15.50;13.17;;;17.30;99.90;;;;;;5063806;28;20461;-70
2022/09/13 07:03:09;;;;;;;13.77;12.37;;;17.30;99.90;;;;;;5066894;28;20935;-70
2022/09/13 07:05:57;;;;;;;14.37;12.87;;;17.30;99.90;;;;;;5069763;28;20457;-70
2022/09/13 07:08:50;;;;;;;14.13;12.47;;;17.40;99.90;;;;;;5069332;28;20480;-70
2022/09/13 07:11:41;;;;;;;13.07;11.80;;;17.40;99.90;;;;;;5069833;28;20539;-70
2022/09/13 07:14:33;;;;;;;15.57;12.70;;;17.40;99.90;;;;;;5071822;28;20480;-71
2022/09/13 07:17:21;;;;;;;12.80;11.37;;;17.40;99.90;;;;;;5070590;28;20469;-70
2022/09/13 07:20:14;;;;;;;11.73;10.53;;;17.40;99.90;;;;;;5069534;28;20453;-70
2022/09/13 07:23:02;;;;;;;11.83;10.37;;;17.50;99.90;;;;;;5070733;28;20481;-70
2022/09/13 07:25:54;;;;;;;12.57;10.70;;;17.50;99.90;;;;;;5059692;28;20476;-70
2022/09/13 07:28:48;;;;;;;11.23;8.90;;;17.60;99.90;;;;;;5070559;28;20457;-70
2022/09/13 07:31:39;;;;;;;11.40;10.20;;;17.60;99.90;;;;;;5065732;28;20472;-70
2022/09/13 07:34:33;;;;;;;10.37;9.13;;;17.60;99.90;;;;;;5068287;28;20573;-70
2022/09/13 07:37:26;;;;;;;11.93;9.27;;;17.60;99.90;;;;;;5069864;28;20468;-70
2022/09/13 07:40:17;;;;;;;13.10;8.80;;;17.60;99.90;;;;;;5070373;28;20465;-70
2022/09/13 07:43:09;;;;;;;8.90;7.77;;;17.60;99.90;;;;;;5072131;28;20487;-70
2022/09/13 07:45:59;;;;;;;11.87;8.67;;;17.70;99.90;;;;;;5070980;28;21674;-70
2022/09/13 07:48:53;;;;;;;11.83;7.93;;;17.70;99.90;;;;;;5073457;28;20450;-71
2022/09/13 07:51:45;;;;;;;10.13;7.60;;;17.70;99.90;;;;;;5072435;28;20477;-70
2022/09/13 07:54:35;;;;;;;9.97;6.83;;;17.80;99.90;;;;;;5067290;28;20485;-70
2022/09/13 07:57:27;;;;;;;9.50;6.57;;;17.90;99.90;;;;;;5072146;28;20477;-70
2022/09/13 08:00:24;;;;;;;7.93;6.47;;;17.90;99.90;;;;;;5067352;28;20461;-70
2022/09/13 08:03:12;;;;;;;6.83;5.30;;;18.00;99.90;;;;;;5070450;28;20489;-70
2022/09/13 08:06:05;;;;;;;8.47;5.67;;;17.90;99.90;;;;;;5070067;28;20457;-70
2022/09/13 08:09:01;;;;;;;5.80;4.80;;;18.00;99.90;;;;;;5070766;28;21059;-70
2022/09/13 08:11:56;;;;;;;7.20;6.00;;;18.00;99.90;;;;;;5075571;28;20543;-70
2022/09/13 08:14:46;;;;;;;10.17;5.37;;;18.00;99.90;;;;;;5073542;28;20512;-70
2022/09/13 08:17:37;;;;;;;5.73;5.03;;;18.00;99.90;;;;;;5075911;28;20993;-70
2022/09/13 08:20:32;;;;;;;7.53;3.97;;;18.00;99.90;;;;;;5070673;28;20456;-70
2022/09/13 08:23:22;;;;;;;5.60;3.87;;;18.00;99.90;;;;;;5076223;28;20488;-70
2022/09/13 08:26:18;;;;;;;5.00;3.30;;;18.00;99.90;;;;;;5076530;28;20490;-70
2022/09/13 08:29:21;;;;;;;5.23;3.37;;;18.00;99.90;;;;;;5069705;28;20975;-70
2022/09/13 08:32:09;;;;;;;4.30;2.50;;;18.10;99.90;;;;;;5072034;28;21039;-70
2022/09/13 08:35:02;;;;;;;4.40;1.90;;;18.10;99.90;;;;;;5075273;28;20450;-70
2022/09/13 08:37:51;;;;;;;7.77;2.67;;;18.10;99.90;;;;;;5075547;28;20474;-70
2022/09/13 08:40:44;;;;;;;5.20;2.37;;;18.20;99.90;;;;;;5073114;28;20650;-70
2022/09/13 08:43:48;;;;;;;3.67;2.30;;;18.10;99.90;;;;;;5075198;28;20563;-70
2022/09/13 08:46:41;;;;;;;2.27;1.77;;;18.10;99.90;;;;;;5069766;28;20461;-70
2022/09/13 08:49:36;;;;;;;3.93;2.10;;;18.10;99.90;;;;;;5069975;28;20458;-70
2022/09/13 08:52:30;;;;;;;2.73;1.77;;;18.10;99.90;;;;;;5069099;28;20468;-70
2022/09/13 08:55:35;;;;;;;6.40;1.83;;;18.20;99.90;;;;;;5072252;28;20919;-70
2022/09/13 08:58:57;;;;;;;4.07;1.60;;;18.20;99.90;;;;;;5072377;28;20461;-70
2022/09/13 09:02:02;;;;;;;3.23;1.67;;;18.20;99.90;;;;;;5069456;28;20470;-70
2022/09/13 09:05:01;;;;;;;4.47;1.57;;;18.30;99.90;;;;;;5072603;28;20532;-70
2022/09/13 09:07:59;;;;;;;2.37;1.47;;;18.30;99.90;;;;;;5074972;28;21067;-70
2022/09/13 09:10:52;;;;;;;4.83;1.67;;;18.40;99.90;;;;;;5076605;28;20445;-70
2022/09/13 09:13:49;;;;;;;3.20;1.20;;;18.40;99.90;;;;;;5074445;28;20466;-70
2022/09/13 09:16:56;;;;;;;1.93;1.20;;;18.50;99.90;;;;;;5070743;28;20453;-70
2022/09/13 09:19:48;;;;;;;3.23;1.23;;;18.50;99.90;;;;;;5069928;28;20449;-70
2022/09/13 09:22:40;;;;;;;2.33;1.50;;;18.50;99.90;;;;;;5068302;28;20509;-70
2022/09/13 09:25:33;;;;;;;3.63;1.10;;;18.60;99.90;;;;;;5074565;28;20465;-70
2022/09/13 09:28:25;;;;;;;4.57;1.30;;;18.70;99.90;;;;;;5070571;28;20465;-70
2022/09/13 09:31:29;;;;;;;3.70;1.13;;;18.80;99.90;;;;;;5062494;28;20462;-70
2022/09/13 09:34:41;;;;;;;4.40;1.23;;;18.90;99.90;;;;;;5073238;28;20473;-70
2022/09/13 09:37:30;;;;;;;5.43;1.40;;;19.00;99.90;;;;;;5072563;28;20476;-70
2022/09/13 09:40:21;;;;;;;3.30;1.20;;;19.10;99.90;;;;;;5069637;28;20446;-70
2022/09/13 09:43:19;;;;;;;4.00;1.40;;;19.10;99.90;;;;;;5074578;28;20473;-70
2022/09/13 09:46:10;;;;;;;4.13;1.10;;;19.00;99.90;;;;;;5064993;28;20543;-69
2022/09/13 09:52:27;;;;;;;2.80;1.70;;;19.10;99.90;;;;;;5074376;28;20483;-68
2022/09/13 09:55:23;;;;;;;2.50;1.10;;;19.20;99.90;;;;;;5073654;28;20449;-69
2022/09/13 09:58:15;;;;;;;2.13;0.97;;;19.30;99.90;;;;;;5063113;28;21098;-69
2022/09/13 10:01:24;;;;;;;2.07;0.83;;;19.40;99.90;;;;;;5067958;28;20504;-67
2022/09/13 10:04:21;;;;;;;5.53;1.00;;;19.40;99.90;;;;;;5070081;28;20477;-69
2022/09/13 10:07:18;;;;;;;3.47;1.50;;;19.50;99.90;;;;;;5069880;28;20446;-72
2022/09/13 10:10:23;;;;;;;3.40;1.50;;;19.50;99.90;;;;;;5071434;28;20997;-72
2022/09/13 10:13:20;;;;;;;2.20;1.03;;;19.60;99.90;;;;;;5070931;28;20574;-70
2022/09/13 10:16:27;;;;;;;3.53;1.37;;;19.60;99.90;;;;;;5065398;28;20445;-70
2022/09/13 10:19:25;;;;;;;1.70;1.10;;;19.70;99.90;;;;;;5071140;28;20503;-69
2022/09/13 10:22:16;;;;;;;2.57;1.10;;;19.80;99.90;;;;;;5072338;28;21097;-70
2022/09/13 10:25:26;;;;;;;2.73;1.30;;;19.90;99.90;;;;;;5072330;28;20445;-70
2022/09/13 10:28:19;;;;;;;2.27;1.13;;;19.90;99.90;;;;;;5067442;28;20580;-71
2022/09/13 10:31:13;;;;;;;3.93;1.20;;;20.00;99.90;;;;;;5069318;28;20510;-71
2022/09/13 10:34:13;;;;;;;3.00;1.13;;;20.00;99.90;;;;;;5073141;28;20482;-71
2022/09/13 10:37:12;;;;;;;4.33;1.30;;;19.90;99.90;;;;;;5074037;28;20808;-70
2022/09/13 10:40:05;;;;;;;3.00;1.30;;;19.90;99.90;;;;;;5068488;28;20843;-70
2022/09/13 10:43:05;;;;;;;4.63;1.60;;;19.90;99.90;;;;;;5070071;28;21001;-71
2022/09/13 10:46:02;;;;;;;4.13;1.43;;;20.00;99.90;;;;;;5067009;28;20476;-71
2022/09/13 10:48:54;;;;;;;2.90;1.10;;;20.10;99.90;;;;;;5068928;28;20441;-71
2022/09/13 10:51:46;;;;;;;5.03;1.40;;;20.20;99.90;;;;;;5071261;28;20600;-71
2022/09/13 10:54:43;;;;;;;6.33;1.13;;;20.30;99.90;;;;;;5071828;28;21004;-70
2022/09/13 10:57:34;;;;;;;3.50;1.47;;;20.40;99.90;;;;;;5072413;28;20637;-70
2022/09/13 11:00:35;;;;;;;2.50;1.30;;;20.40;99.90;;;;;;5076509;28;20440;-71
2022/09/13 11:03:44;;;;;;;2.73;1.10;;;20.50;99.90;;;;;;5070026;28;21374;-71
2022/09/13 11:06:42;;;;;;;2.90;1.10;;;20.60;99.90;;;;;;5072318;28;20465;-71
2022/09/13 11:09:36;;;;;;;3.70;1.20;;;20.70;99.90;;;;;;5072906;28;20445;-69
2022/09/13 11:12:30;;;;;;;4.50;1.43;;;20.70;99.90;;;;;;5064995;28;20474;-70
2022/09/13 11:15:36;;;;;;;2.70;1.27;;;20.60;99.90;;;;;;5071732;28;20831;-71
2022/09/13 11:18:58;;;;;;;5.10;1.40;;;20.60;99.90;;;;;;5070015;28;21003;-70
2022/09/13 11:22:13;;;;;;;2.83;0.90;;;20.50;99.90;;;;;;5067246;28;20466;-69
2022/09/13 11:25:17;;;;;;;1.83;1.20;;;20.60;99.90;;;;;;5068259;28;20461;-69
2022/09/13 11:28:14;;;;;;;3.20;1.23;;;20.80;99.90;;;;;;5070805;28;20451;-69
2022/09/13 11:31:16;;;;;;;2.47;0.90;;;20.90;99.90;;;;;;5073281;28;20883;-69
2022/09/13 11:34:28;;;;;;;3.80;1.20;;;20.90;99.90;;;;;;5074287;28;20580;-69
2022/09/13 11:37:42;;;;;;;5.10;1.27;;;20.90;99.90;;;;;;5066992;28;20465;-69
2022/09/13 11:40:43;;;;;;;2.50;1.20;;;20.90;99.90;;;;;;5068236;28;20453;-69
2022/09/13 11:43:44;;;;;;;3.00;1.20;;;21.00;99.90;;;;;;5073111;28;21032;-68
2022/09/13 11:46:57;;;;;;;3.70;1.70;;;21.10;99.90;;;;;;5066788;28;20554;-69
2022/09/13 11:50:26;;;;;;;3.03;1.40;;;20.90;99.90;;;;;;5066970;28;20987;-69
2022/09/13 11:53:33;;;;;;;1.97;1.10;;;21.00;99.90;;;;;;5048920;28;20485;-70
2022/09/13 11:56:31;;;;;;;5.23;1.40;;;20.90;99.90;;;;;;5063645;28;20441;-71
2022/09/13 11:59:36;;;;;;;3.33;1.10;;;21.00;99.90;;;;;;5072533;28;20477;-71
2022/09/13 12:02:35;;;;;;;3.67;1.20;;;21.10;99.90;;;;;;5069355;28;20480;-71
2022/09/13 12:05:28;;;;;;;4.57;1.00;;;21.20;99.90;;;;;;5070061;28;20456;-71
2022/09/13 12:08:24;;;;;;;2.90;1.13;;;21.30;99.90;;;;;;5065672;28;20466;-71
2022/09/13 12:11:22;;;;;;;2.60;1.60;;;21.30;99.90;;;;;;5069456;28;20594;-71
2022/09/13 12:14:15;;;;;;;3.63;1.70;;;21.40;99.90;;;;;;5071632;28;21413;-72
2022/09/13 12:17:17;;;;;;;4.70;1.40;;;21.50;99.90;;;;;;5055960;28;20454;-70
2022/09/13 12:20:23;;;;;;;3.33;1.30;;;21.70;99.90;;;;;;5062143;28;20480;-70
2022/09/13 12:23:17;;;;;;;5.20;1.43;;;21.80;99.90;;;;;;5056582;28;20526;-71
2022/09/13 12:26:16;;;;;;;2.80;1.20;;;21.90;99.90;;;;;;5059940;28;20440;-71
2022/09/13 12:29:14;;;;;;;3.33;1.40;;;22.00;99.90;;;;;;5061363;28;20453;-70
2022/09/13 12:32:11;;;;;;;2.63;1.10;;;22.20;99.90;;;;;;5056953;28;20495;-71
2022/09/13 12:35:06;;;;;;;3.17;1.13;;;22.20;99.90;;;;;;5059479;28;20453;-70
2022/09/13 12:38:21;;;;;;;5.60;1.67;;;22.20;99.90;;;;;;5051333;28;21566;-70
2022/09/13 12:41:31;;;;;;;7.33;1.50;;;22.40;99.90;;;;;;5058082;28;20515;-71
2022/09/13 12:44:54;;;;;;;3.93;1.50;;;22.40;99.90;;;;;;5063056;28;20472;-71
2022/09/13 12:48:23;;;;;;;3.33;1.30;;;22.30;99.90;;;;;;5063600;28;20457;-70
2022/09/13 12:51:25;;;;;;;2.70;1.50;;;22.30;99.90;;;;;;5052841;28;20508;-69
2022/09/13 12:54:39;;;;;;;3.80;1.60;;;22.30;99.90;;;;;;5050875;28;20489;-70
2022/09/13 12:57:39;;;;;;;3.43;1.33;;;22.30;99.90;;;;;;5061108;28;20841;-70
2022/09/13 13:00:30;;;;;;;3.67;1.53;;;22.50;99.90;;;;;;5072104;28;20505;-69
2022/09/13 13:03:20;;;;;;;5.20;1.30;;;22.80;99.90;;;;;;5054630;28;20489;-69
2022/09/13 13:06:17;;;;;;;2.80;1.20;;;23.30;99.90;;;;;;5065376;28;20452;-70
2022/09/13 13:09:22;;;;;;;5.93;1.50;;;23.80;99.90;;;;;;5061579;28;20450;-69
2022/09/13 13:12:31;;;;;;;2.73;1.00;;;24.00;99.90;;;;;;5068374;28;20466;-70
2022/09/13 13:16:01;;;;;;;5.50;1.30;;;23.70;99.90;;;;;;5048342;28;20972;-69
2022/09/13 13:18:55;;;;;;;3.43;1.10;;;23.90;99.90;;;;;;5062053;28;20457;-70
2022/09/13 13:21:43;;;;;;;2.97;1.10;;;24.00;99.90;;;;;;5065536;28;20481;-70
2022/09/13 13:24:45;;;;;;;3.27;1.03;;;23.80;99.90;;;;;;5066402;28;21181;-69
2022/09/13 13:27:50;;;;;;;3.20;1.27;;;23.80;99.90;;;;;;5056991;28;20457;-71
2022/09/13 13:30:53;;;;;;;3.20;1.20;;;23.80;99.90;;;;;;5059989;28;20465;-69
2022/09/13 13:34:01;;;;;;;2.87;1.40;;;24.00;99.90;;;;;;5043135;28;21195;-70
2022/09/13 13:36:52;;;;;;;2.73;1.33;;;24.10;99.90;;;;;;5061732;28;20462;-69
2022/09/13 13:39:46;;;;;;;4.40;1.30;;;24.00;99.90;;;;;;5057170;28;20472;-71
2022/09/13 13:42:40;;;;;;;6.13;1.23;;;23.80;99.90;;;;;;5058958;28;20473;-70
2022/09/13 13:45:32;;;;;;;2.77;1.30;;;23.60;99.90;;;;;;5057029;28;20446;-69
2022/09/13 13:48:35;;;;;;;2.33;1.20;;;23.10;99.90;;;;;;5061081;28;20949;-70
2022/09/13 13:51:32;;;;;;;3.70;1.40;;;22.60;99.90;;;;;;5052608;28;20485;-69
2022/09/13 13:54:52;;;;;;;5.97;1.30;;;22.50;99.90;;;;;;5053491;28;20475;-69
2022/09/13 13:57:58;;;;;;;2.70;1.20;;;22.40;99.90;;;;;;5063425;28;20531;-69
2022/09/13 14:00:54;;;;;;;3.00;1.27;;;22.20;99.90;;;;;;5065579;28;20487;-69
2022/09/13 14:04:17;;;;;;;2.80;1.03;;;22.20;99.90;;;;;;5068162;28;20523;-69
2022/09/13 14:07:28;;;;;;;1.77;0.90;;;22.20;99.90;;;;;;5057545;28;20456;-69
2022/09/13 14:10:36;;;;;;;3.33;1.27;;;21.90;99.90;;;;;;5058668;28;20461;-69
2022/09/13 14:13:43;;;;;;;2.80;1.40;;;21.80;99.90;;;;;;5055292;28;20484;-69
2022/09/13 14:17:01;;;;;;;3.17;1.07;;;21.70;99.90;;;;;;5044293;28;21324;-69
2022/09/13 14:19:55;;;;;;;4.13;1.37;;;21.50;99.90;;;;;;5065181;28;20500;-69
2022/09/13 14:22:47;;;;;;;8.40;1.33;;;;;;;;;;5059458;28;21190;-70
2022/09/13 14:25:42;;;;;;;3.93;1.63;;;21.50;99.90;;;;;;5062574;28;20476;-69
2022/09/13 14:28:42;;;;;;;7.47;1.50;;;21.20;99.90;;;;;;5053776;28;20457;-69
2022/09/13 14:31:32;;;;;;;5.93;1.50;;;21.10;99.90;;;;;;5052773;28;20473;-69
2022/09/13 14:34:27;;;;;;;4.03;1.30;;;21.10;99.90;;;;;;5062440;28;20471;-70
2022/09/13 14:37:26;;;;;;;4.90;1.87;;;21.10;99.90;;;;;;5061969;28;20465;-70
2022/09/13 14:40:21;;;;;;;2.90;1.30;;;21.00;99.90;;;;;;5066724;28;20519;-70
2022/09/13 14:43:16;;;;;;;5.70;1.90;;;21.10;99.90;;;;;;5063401;28;20568;-70
2022/09/13 14:46:13;;;;;;;5.70;1.60;;;21.00;99.90;;;;;;5065822;28;20461;-69
2022/09/13 14:49:14;;;;;;;3.10;1.40;;;21.00;99.90;;;;;;5075132;28;20452;-70
2022/09/13 14:52:21;;;;;;;3.43;1.33;;;21.10;99.90;;;;;;5071740;28;20492;-70
2022/09/13 14:55:16;;;;;;;4.33;1.30;;;21.00;99.90;;;;;;5049875;28;20458;-70
2022/09/13 14:58:08;;;;;;;5.43;1.20;;;21.00;99.90;;;;;;5064700;28;20972;-70
2022/09/13 15:00:59;;;;;;;3.07;1.23;;;;;;;;;;5073183;28;20481;-70
2022/09/13 15:03:51;;;;;;;3.47;1.50;;;;;;;;;;5060178;28;20468;-70
2022/09/13 15:06:41;;;;;;;8.20;2.10;;;;;;;;;;5066669;28;20971;-70
2022/09/13 15:09:32;;;;;;;3.33;1.23;;;;;;;;;;5061522;28;20458;-69
2022/09/13 15:12:24;;;;;;;4.10;1.30;;;;;;;;;;5065088;28;20472;-69
2022/09/13 15:15:22;;;;;;;7.07;1.73;;;;;;;;;;5064489;28;20449;-71
2022/09/13 15:18:24;;;;;;;4.53;1.50;;;;;;;;;;5055748;28;20547;-71
2022/09/13 15:21:17;;;;;;;3.10;1.57;;;;;;;;;;5066853;28;21015;-71
2022/09/13 15:24:07;;;;;;;3.87;1.53;;;;;;;;;;5066166;28;20475;-72
2022/09/13 15:27:04;;;;;;;4.87;1.43;;;;;;;;;;5066663;28;22801;-71
2022/09/13 15:29:58;;;;;;;3.30;1.60;;;;;;;;;;5065735;28;20437;-72
2022/09/13 15:32:50;;;;;;;3.70;1.40;;;;;;;;;;5060436;28;20481;-72
2022/09/13 15:35:39;;;;;;;5.73;1.60;;;;;;;;;;5067539;28;20450;-71
2022/09/13 15:38:32;;;;;;;3.70;1.23;;;;;;;;;;5063168;28;20448;-71
2022/09/13 15:41:33;;;;;;;4.57;1.53;;;;;;;;;;5061223;28;20480;-71
2022/09/13 15:44:23;;;;;;;6.37;1.60;;;;;;;;;;5068006;28;20517;-71
2022/09/13 15:47:19;;;;;;;4.10;1.30;;;;;;;;;;5061675;28;20483;-71
2022/09/13 15:50:07;;;;;;;4.00;1.30;;;;;;;;;;5064557;28;20459;-71
2022/09/13 15:53:10;;;;;;;7.97;1.73;;;;;;;;;;5062684;28;20472;-74
2022/09/13 15:56:06;;;;;;;3.80;1.13;;;;;;;;;;5076460;28;20457;-72
2022/09/13 15:59:00;;;;;;;4.93;1.40;;;;;;;;;;5065248;28;20959;-72
2022/09/13 16:01:50;;;;;;;5.93;1.30;;;;;;;;;;5063036;28;21826;-71
2022/09/13 16:04:43;;;;;;;3.10;1.40;;;;;;;;;;5059769;28;21477;-71
2022/09/13 16:07:37;;;;;;;4.47;1.40;;;;;;;;;;5064773;28;20448;-71
2022/09/13 16:10:28;;;;;;;4.00;1.40;;;;;;;;;;5067090;28;20449;-71
2022/09/13 16:13:18;;;;;;;2.97;0.87;;;;;;;;;;5061609;28;20485;-71
2022/09/13 16:16:14;;;;;;;4.57;1.30;;;21.00;99.90;;;;;;5061531;28;20457;-70
2022/09/13 16:19:05;;;;;;;4.00;1.20;;;19.60;99.90;;;;;;5060265;28;20945;-69
2022/09/13 16:21:58;;;;;;;4.33;1.40;;;;;;;;;;5062287;28;20826;-70
2022/09/13 16:24:48;;;;;;;4.67;1.20;;;;;;;;;;5070780;28;21031;-70
2022/09/13 16:27:43;;;;;;;6.23;1.07;;;;;;;;;;5073545;28;20473;-69
2022/09/13 16:30:35;;;;;;;3.27;1.03;;;;;;;;;;5061612;28;20454;-69
2022/09/13 16:33:30;;;;;;;4.43;1.20;;;;;;;;;;5057342;28;20496;-68
2022/09/13 16:36:18;;;;;;;2.33;0.97;;;;;;;;;;5070337;28;20461;-69
2022/09/13 16:39:09;;;;;;;2.43;1.10;;;;;;;;;;5066763;28;20492;-70
2022/09/13 16:42:04;;;;;;;1.27;0.80;;;;;;;;;;5058840;28;20481;-70
2022/09/13 16:44:54;;;;;;;5.10;1.30;;;;;;;;;;5066396;28;20480;-70
2022/09/13 16:47:48;;;;;;;3.57;1.30;;;;;;;;;;5063547;28;20457;-69
2022/09/13 16:50:40;;;;;;;3.00;1.20;;;;;;;;;;5059742;28;20583;-69
2022/09/13 16:53:34;;;;;;;4.73;1.40;;;;;;;;;;5065716;28;20480;-69
2022/09/13 16:56:25;;;;;;;4.70;1.20;;;;;;;;;;5063479;28;20458;-71